createdAt,value
2018-08-22T00:00:51.696Z,20.60
2018-08-22T00:03:20.161Z,20.60
2018-08-22T00:05:49.168Z,20.60
2018-08-22T00:08:22.531Z,20.60
2018-08-22T00:10:51.504Z,20.70
2018-08-22T00:13:20.465Z,20.70
2018-08-22T00:15:49.504Z,20.70
2018-08-22T00:18:17.948Z,20.60
2018-08-22T00:20:46.455Z,20.60
2018-08-22T00:23:15.629Z,20.50
2018-08-22T00:25:44.063Z,20.50
2018-08-22T00:28:13.260Z,20.50
2018-08-22T00:30:41.667Z,20.50
2018-08-22T00:33:11.062Z,20.50
2018-08-22T00:35:40.127Z,20.50
2018-08-22T00:38:09.156Z,20.50
2018-08-22T00:40:37.591Z,20.50
2018-08-22T00:43:06.166Z,20.40
2018-08-22T00:45:35.174Z,20.40
2018-08-22T00:48:03.745Z,20.30
2018-08-22T00:50:32.221Z,20.20
2018-08-22T00:53:00.825Z,20.10
2018-08-22T00:55:29.680Z,20.20
2018-08-22T00:57:58.772Z,20.20
2018-08-22T01:00:27.214Z,20.30
2018-08-22T01:02:55.757Z,20.30
2018-08-22T01:05:24.174Z,20.20
2018-08-22T01:07:52.810Z,20.20
2018-08-22T01:10:21.774Z,20.20
2018-08-22T01:12:50.925Z,20.10
2018-08-22T01:15:19.497Z,20.10
2018-08-22T01:17:48.546Z,20.10
2018-08-22T01:20:17.073Z,19.90
2018-08-22T01:22:46.240Z,19.80
2018-08-22T01:25:15.352Z,19.80
2018-08-22T01:27:44.924Z,19.80
2018-08-22T01:30:13.424Z,19.80
2018-08-22T01:32:41.992Z,19.80
2018-08-22T01:35:10.436Z,19.70
2018-08-22T01:37:39.265Z,19.50
2018-08-22T01:40:07.710Z,19.50
2018-08-22T01:42:36.125Z,19.60
2018-08-22T01:45:11.654Z,19.60
2018-08-22T01:47:40.063Z,19.50
2018-08-22T01:50:09.932Z,19.50
2018-08-22T01:52:38.312Z,19.60
2018-08-22T01:55:06.780Z,19.40
2018-08-22T01:57:35.228Z,19.40
2018-08-22T02:00:03.885Z,19.30
2018-08-22T02:02:32.437Z,19.20
2018-08-22T02:05:00.862Z,19.10
2018-08-22T02:07:29.303Z,19.00
2018-08-22T02:09:58.315Z,19.00
2018-08-22T02:12:26.856Z,19.00
2018-08-22T02:14:55.457Z,19.00
2018-08-22T02:17:23.869Z,19.10
2018-08-22T02:19:52.257Z,19.30
2018-08-22T02:22:20.873Z,19.30
2018-08-22T02:24:49.798Z,19.20
2018-08-22T02:27:18.357Z,19.10
2018-08-22T02:29:46.802Z,19.00
2018-08-22T02:32:15.345Z,19.00
2018-08-22T02:34:43.897Z,19.10
2018-08-22T02:37:12.341Z,19.00
2018-08-22T02:39:40.863Z,19.10
2018-08-22T02:42:09.865Z,19.10
2018-08-22T02:44:38.278Z,19.10
2018-08-22T02:47:07.392Z,19.00
2018-08-22T02:49:35.833Z,18.80
2018-08-22T02:52:04.901Z,18.70
2018-08-22T02:54:33.328Z,18.70
2018-08-22T02:57:01.724Z,18.70
2018-08-22T02:59:30.137Z,18.70
2018-08-22T03:01:58.677Z,18.70
2018-08-22T03:04:27.627Z,18.80
2018-08-22T03:06:56.493Z,18.80
2018-08-22T03:09:24.897Z,18.90
2018-08-22T03:11:53.328Z,18.90
2018-08-22T03:14:21.914Z,18.80
2018-08-22T03:16:50.526Z,18.80
2018-08-22T03:19:19.517Z,18.60
2018-08-22T03:21:47.927Z,18.50
2018-08-22T03:24:16.360Z,18.50
2018-08-22T03:26:44.835Z,18.60
2018-08-22T03:29:13.688Z,18.60
2018-08-22T03:31:42.119Z,18.60
2018-08-22T03:34:10.721Z,18.60
2018-08-22T03:36:39.261Z,18.70
2018-08-22T03:39:08.672Z,18.60
2018-08-22T03:41:37.073Z,18.60
2018-08-22T03:44:06.217Z,18.60
2018-08-22T03:49:33.768Z,18.40
2018-08-22T03:52:02.305Z,18.40
2018-08-22T03:54:30.751Z,18.40
2018-08-22T03:56:59.124Z,18.30
2018-08-22T03:59:27.765Z,18.30
2018-08-22T04:01:56.193Z,18.20
2018-08-22T04:04:25.328Z,18.20
2018-08-22T04:06:53.792Z,18.30
2018-08-22T04:09:22.740Z,18.30
2018-08-22T04:11:51.224Z,18.30
2018-08-22T04:14:19.857Z,18.30
2018-08-22T04:16:48.334Z,18.30
2018-08-22T04:19:16.783Z,18.30
2018-08-22T04:21:45.617Z,18.20
2018-08-22T04:24:14.142Z,18.10
2018-08-22T04:26:42.595Z,18.00
2018-08-22T04:29:11.423Z,17.90
2018-08-22T04:31:39.937Z,17.80
2018-08-22T04:34:08.378Z,17.80
2018-08-22T04:36:36.744Z,17.80
2018-08-22T04:42:38.260Z,17.90
2018-08-22T04:45:07.228Z,17.90
2018-08-22T04:47:35.888Z,18.00
2018-08-22T04:50:04.686Z,18.00
2018-08-22T04:52:33.256Z,18.00
2018-08-22T04:55:01.771Z,18.00
2018-08-22T04:57:30.239Z,17.90
2018-08-22T04:59:59.189Z,18.00
2018-08-22T05:02:27.844Z,18.00
2018-08-22T05:04:56.638Z,18.10
2018-08-22T05:07:25.511Z,18.10
2018-08-22T05:09:53.977Z,18.20
2018-08-22T05:12:22.701Z,18.30
2018-08-22T05:14:51.704Z,18.30
2018-08-22T05:17:20.213Z,18.30
2018-08-22T05:19:48.889Z,18.30
2018-08-22T05:22:17.520Z,18.40
2018-08-22T05:24:47.391Z,18.40
2018-08-22T05:27:15.782Z,18.50
2018-08-22T05:29:44.393Z,18.50
2018-08-22T05:32:12.855Z,18.50
2018-08-22T05:34:41.890Z,18.60
2018-08-22T05:37:10.302Z,18.70
2018-08-22T05:39:38.718Z,18.80
2018-08-22T05:42:07.208Z,18.90
2018-08-22T05:44:35.832Z,19.00
2018-08-22T05:47:04.581Z,19.00
2018-08-22T05:49:33.244Z,19.00
2018-08-22T05:52:01.783Z,19.10
2018-08-22T05:54:31.020Z,19.20
2018-08-22T05:56:59.554Z,19.40
2018-08-22T05:59:28.216Z,19.40
2018-08-22T06:01:56.634Z,19.40
2018-08-22T06:04:25.242Z,19.30
2018-08-22T06:06:53.756Z,19.40
2018-08-22T06:09:22.365Z,19.60
2018-08-22T06:11:50.834Z,19.70
2018-08-22T06:14:19.932Z,19.80
2018-08-22T06:16:48.716Z,19.80
2018-08-22T06:19:17.695Z,19.80
2018-08-22T06:21:46.347Z,19.90
2018-08-22T06:24:15.023Z,20.00
2018-08-22T06:26:43.440Z,20.10
2018-08-22T06:29:12.377Z,20.20
2018-08-22T06:31:41.651Z,20.30
2018-08-22T06:34:10.281Z,20.30
2018-08-22T06:36:38.995Z,20.30
2018-08-22T06:39:09.320Z,20.50
2018-08-22T06:41:37.802Z,20.80
2018-08-22T06:44:06.231Z,21.00
2018-08-22T06:46:34.861Z,20.90
2018-08-22T06:49:03.451Z,21.20
2018-08-22T06:51:31.955Z,21.40
2018-08-22T06:54:00.931Z,21.60
2018-08-22T06:56:29.353Z,21.80
2018-08-22T06:58:57.912Z,21.90
2018-08-22T07:01:26.973Z,22.10
2018-08-22T07:03:55.372Z,21.80
2018-08-22T07:06:23.819Z,21.80
2018-08-22T07:08:52.219Z,21.80
2018-08-22T07:11:20.699Z,21.80
2018-08-22T07:13:49.154Z,22.00
2018-08-22T07:16:18.132Z,22.30
2018-08-22T07:18:46.559Z,22.30
2018-08-22T07:21:15.008Z,22.50
2018-08-22T07:23:43.441Z,22.80
2018-08-22T07:26:11.940Z,23.00
2018-08-22T07:28:40.345Z,23.10
2018-08-22T07:31:09.453Z,23.20
2018-08-22T07:33:37.978Z,23.50
2018-08-22T07:36:06.435Z,23.70
2018-08-22T07:38:41.386Z,23.90
2018-08-22T07:41:10.001Z,24.10
2018-08-22T07:43:38.460Z,24.20
2018-08-22T07:46:06.939Z,24.30
2018-08-22T07:48:35.390Z,24.60
2018-08-22T07:51:04.665Z,24.80
2018-08-22T07:53:33.093Z,25.00
2018-08-22T07:56:01.482Z,25.20
2018-08-22T07:58:29.981Z,25.30
2018-08-22T08:00:59.061Z,25.30
2018-08-22T08:03:27.465Z,25.60
2018-08-22T08:05:56.033Z,25.70
2018-08-22T08:08:24.525Z,25.90
2018-08-22T08:10:53.099Z,26.30
2018-08-22T08:13:26.689Z,26.30
2018-08-22T08:15:55.299Z,26.30
2018-08-22T08:18:23.711Z,26.80
2018-08-22T08:20:53.243Z,27.20
2018-08-22T08:23:22.866Z,27.60
2018-08-22T08:25:51.427Z,27.70
2018-08-22T08:28:20.026Z,27.90
2018-08-22T08:30:48.640Z,28.00
2018-08-22T08:33:17.148Z,27.70
2018-08-22T08:35:45.713Z,28.40
2018-08-22T08:38:14.323Z,28.50
2018-08-22T08:40:42.799Z,28.60
2018-08-22T08:43:12.596Z,28.30
2018-08-22T08:45:41.401Z,28.60
2018-08-22T08:48:09.861Z,29.00
2018-08-22T08:50:38.553Z,29.30
2018-08-22T08:53:06.978Z,28.70
2018-08-22T08:55:35.718Z,29.30
2018-08-22T08:58:04.603Z,29.70
2018-08-22T09:00:33.062Z,29.70
2018-08-22T09:03:01.450Z,30.20
2018-08-22T09:05:29.862Z,30.60
2018-08-22T09:07:58.375Z,30.70
2018-08-22T09:10:26.834Z,30.70
2018-08-22T09:12:55.443Z,31.10
2018-08-22T09:15:23.872Z,31.60
2018-08-22T09:17:52.412Z,31.60
2018-08-22T09:20:20.918Z,31.40
2018-08-22T09:22:49.528Z,31.30
2018-08-22T09:25:18.047Z,31.70
2018-08-22T09:27:46.570Z,31.80
2018-08-22T09:30:15.495Z,31.70
2018-08-22T09:32:43.909Z,30.90
2018-08-22T09:35:12.374Z,30.60
2018-08-22T09:37:40.851Z,30.20
2018-08-22T09:40:09.429Z,30.20
2018-08-22T09:42:37.816Z,30.20
2018-08-22T09:45:06.339Z,30.30
2018-08-22T09:47:34.765Z,30.90
2018-08-22T09:50:03.274Z,31.10
2018-08-22T09:52:31.811Z,31.40
2018-08-22T09:55:02.980Z,32.00
2018-08-22T09:57:31.866Z,32.10
2018-08-22T10:00:00.348Z,32.20
2018-08-22T10:02:28.813Z,31.90
2018-08-22T10:04:58.545Z,31.10
2018-08-22T10:07:27.016Z,31.20
2018-08-22T10:09:55.540Z,31.40
2018-08-22T10:12:23.937Z,31.70
2018-08-22T10:14:52.458Z,32.10
2018-08-22T10:17:21.037Z,32.50
2018-08-22T10:19:49.495Z,32.90
2018-08-22T10:22:18.118Z,33.10
2018-08-22T10:24:46.657Z,33.20
2018-08-22T10:27:15.677Z,33.50
2018-08-22T10:29:44.132Z,33.50
2018-08-22T10:32:12.733Z,32.70
2018-08-22T10:34:41.206Z,32.40
2018-08-22T10:37:09.785Z,32.90
2018-08-22T10:39:39.106Z,32.80
2018-08-22T10:42:07.736Z,33.10
2018-08-22T10:44:36.261Z,33.00
2018-08-22T10:47:05.429Z,33.30
2018-08-22T10:49:34.097Z,33.50
2018-08-22T10:52:02.506Z,32.90
2018-08-22T10:54:30.995Z,32.70
2018-08-22T11:00:37.887Z,33.80
2018-08-22T11:03:06.408Z,33.30
2018-08-22T11:05:34.819Z,33.70
2018-08-22T11:08:03.374Z,33.30
2018-08-22T11:10:31.802Z,33.10
2018-08-22T11:13:00.244Z,33.00
2018-08-22T11:15:28.702Z,33.40
2018-08-22T11:17:57.455Z,33.80
2018-08-22T11:20:26.796Z,33.60
2018-08-22T11:23:06.314Z,34.00
2018-08-22T11:25:46.024Z,34.20
2018-08-22T11:28:25.733Z,34.40
2018-08-22T11:31:05.198Z,34.40
2018-08-22T11:33:45.477Z,34.00
2018-08-22T11:36:12.831Z,34.10
2018-08-22T11:38:41.979Z,34.40
2018-08-22T11:41:10.976Z,34.60
2018-08-22T11:43:39.533Z,34.50
2018-08-22T11:46:08.129Z,34.70
2018-08-22T11:48:36.623Z,33.90
2018-08-22T11:51:05.101Z,33.30
2018-08-22T11:53:33.483Z,33.40
2018-08-22T11:56:02.692Z,33.40
2018-08-22T11:58:31.153Z,34.10
2018-08-22T12:00:59.689Z,34.00
2018-08-22T12:03:34.715Z,33.40
2018-08-22T12:06:03.436Z,33.50
2018-08-22T12:08:32.071Z,33.30
2018-08-22T12:11:01.430Z,33.30
2018-08-22T12:13:30.557Z,33.30
2018-08-22T12:15:59.179Z,32.80
2018-08-22T12:18:27.620Z,33.10
2018-08-22T12:20:56.781Z,33.40
2018-08-22T12:23:25.988Z,34.10
2018-08-22T12:25:54.361Z,34.20
2018-08-22T12:28:23.453Z,34.60
2018-08-22T12:30:51.889Z,34.60
2018-08-22T12:33:20.312Z,34.30
2018-08-22T12:35:48.719Z,33.80
2018-08-22T12:38:17.251Z,33.40
2018-08-22T12:40:45.833Z,32.80
2018-08-22T12:43:45.093Z,32.50
2018-08-22T12:46:13.753Z,32.60
2018-08-22T12:48:42.236Z,32.80
2018-08-22T12:51:10.768Z,33.50
2018-08-22T12:53:39.189Z,33.80
2018-08-22T12:56:07.692Z,33.50
2018-08-22T12:58:36.118Z,32.90
2018-08-22T13:01:04.780Z,32.60
2018-08-22T13:03:33.188Z,33.00
2018-08-22T13:06:01.734Z,33.50
2018-08-22T13:08:30.290Z,33.90
2018-08-22T13:10:58.888Z,34.20
2018-08-22T13:13:27.565Z,34.10
2018-08-22T13:15:56.067Z,33.50
2018-08-22T13:18:24.591Z,33.60
2018-08-22T13:20:53.178Z,33.70
2018-08-22T13:23:22.276Z,33.90
2018-08-22T13:25:50.742Z,33.10
2018-08-22T13:28:19.221Z,33.30
2018-08-22T13:30:47.657Z,33.40
2018-08-22T13:33:16.198Z,33.30
2018-08-22T13:35:44.606Z,33.00
2018-08-22T13:38:13.252Z,33.30
2018-08-22T13:40:42.322Z,33.30
2018-08-22T13:43:10.773Z,33.40
2018-08-22T13:45:39.193Z,33.10
2018-08-22T13:48:07.979Z,32.80
2018-08-22T13:50:36.510Z,32.60
2018-08-22T13:53:05.219Z,32.50
2018-08-22T13:55:33.909Z,32.50
2018-08-22T13:58:02.433Z,32.30
2018-08-22T14:00:31.499Z,32.40
2018-08-22T14:03:00.106Z,32.30
2018-08-22T14:05:28.820Z,32.70
2018-08-22T14:07:57.213Z,32.90
2018-08-22T14:10:25.748Z,33.20
2018-08-22T14:12:54.154Z,33.20
2018-08-22T14:15:22.640Z,33.30
2018-08-22T14:17:51.656Z,33.20
2018-08-22T14:20:20.200Z,32.90
2018-08-22T14:22:49.333Z,33.00
2018-08-22T14:25:17.730Z,32.60
2018-08-22T14:27:46.294Z,32.30
2018-08-22T14:30:18.332Z,32.20
2018-08-22T14:32:46.880Z,32.20
2018-08-22T14:35:16.544Z,32.20
2018-08-22T14:37:44.998Z,32.10
2018-08-22T14:40:13.439Z,32.20
2018-08-22T14:42:41.899Z,32.20
2018-08-22T14:45:10.455Z,32.30
2018-08-22T14:47:39.030Z,32.20
2018-08-22T14:50:08.176Z,32.20
2018-08-22T14:52:37.783Z,32.20
2018-08-22T14:55:06.268Z,32.20
2018-08-22T14:57:35.350Z,32.30
2018-08-22T15:00:03.924Z,32.30
2018-08-22T15:02:32.803Z,32.30
2018-08-22T15:05:01.764Z,32.30
2018-08-22T15:07:30.417Z,32.20
2018-08-22T15:09:59.561Z,32.00
2018-08-22T15:12:28.018Z,31.70
2018-08-22T15:14:56.497Z,31.40
2018-08-22T15:17:25.047Z,31.40
2018-08-22T15:19:53.793Z,31.40
2018-08-22T15:22:22.255Z,31.40
2018-08-22T15:24:51.268Z,31.20
2018-08-22T15:27:19.733Z,31.10
2018-08-22T15:29:48.987Z,31.10
2018-08-22T15:32:17.454Z,31.10
2018-08-22T15:34:52.791Z,31.10
2018-08-22T15:37:21.595Z,31.10
2018-08-22T15:39:50.036Z,31.00
2018-08-22T15:42:18.533Z,31.00
2018-08-22T15:44:46.987Z,31.10
2018-08-22T15:47:15.534Z,31.00
2018-08-22T15:49:45.122Z,30.90
2018-08-22T15:52:14.410Z,30.40
2018-08-22T15:54:42.944Z,30.10
2018-08-22T15:57:11.403Z,29.70
2018-08-22T15:59:39.811Z,29.50
2018-08-22T16:02:08.296Z,29.30
2018-08-22T16:04:52.246Z,29.30
2018-08-22T16:07:20.800Z,29.30
2018-08-22T16:09:49.365Z,29.20
2018-08-22T16:12:17.886Z,29.20
2018-08-22T16:14:46.506Z,29.10
2018-08-22T16:17:15.018Z,29.10
2018-08-22T16:19:43.494Z,29.10
2018-08-22T16:22:12.688Z,29.10
2018-08-22T16:24:42.522Z,29.00
2018-08-22T16:27:11.081Z,28.80
2018-08-22T16:29:39.544Z,28.70
2018-08-22T16:32:08.654Z,28.70
2018-08-22T16:34:38.099Z,28.80
2018-08-22T16:37:06.851Z,28.80
2018-08-22T16:39:43.107Z,28.90
2018-08-22T16:42:11.898Z,28.90
2018-08-22T16:44:41.010Z,28.90
2018-08-22T16:47:10.078Z,28.90
2018-08-22T16:49:38.819Z,28.90
2018-08-22T16:52:08.266Z,28.80
2018-08-22T16:54:37.049Z,28.60
2018-08-22T16:57:06.189Z,28.60
2018-08-22T16:59:34.694Z,28.50
2018-08-22T17:02:03.167Z,28.40
2018-08-22T17:04:32.200Z,28.30
2018-08-22T17:07:05.376Z,28.20
2018-08-22T17:09:34.353Z,28.20
2018-08-22T17:12:02.878Z,28.30
2018-08-22T17:14:31.436Z,28.40
2018-08-22T17:17:00.067Z,28.30
2018-08-22T17:19:29.138Z,28.50
2018-08-22T17:21:57.734Z,28.50
2018-08-22T17:24:26.274Z,28.50
2018-08-22T17:26:54.747Z,28.60
2018-08-22T17:29:23.557Z,28.50
2018-08-22T17:31:57.334Z,28.50
2018-08-22T17:34:25.821Z,28.60
2018-08-22T17:37:04.455Z,28.50
2018-08-22T17:39:33.185Z,28.50
2018-08-22T17:42:02.078Z,28.50
2018-08-22T17:44:30.546Z,28.40
2018-08-22T17:46:58.976Z,28.40
2018-08-22T17:49:27.601Z,28.30
2018-08-22T17:51:57.886Z,28.30
2018-08-22T17:54:26.802Z,28.30
2018-08-22T17:57:07.510Z,28.30
2018-08-22T17:59:36.056Z,28.10
2018-08-22T18:02:04.525Z,27.80
2018-08-22T18:05:11.308Z,27.80
2018-08-22T18:07:40.613Z,27.70
2018-08-22T18:10:09.051Z,27.60
2018-08-22T18:12:37.537Z,27.50
2018-08-22T18:15:06.085Z,27.30
2018-08-22T18:17:34.761Z,27.40
2018-08-22T18:20:03.229Z,27.40
2018-08-22T18:22:34.413Z,27.40
2018-08-22T18:25:03.653Z,27.40
2018-08-22T18:27:32.209Z,27.30
2018-08-22T18:30:00.576Z,27.20
2018-08-22T18:32:29.063Z,27.10
2018-08-22T18:35:07.595Z,26.90
2018-08-22T18:37:36.091Z,26.70
2018-08-22T18:40:27.877Z,26.60
2018-08-22T18:42:57.742Z,26.60
2018-08-22T18:45:27.127Z,26.50
2018-08-22T18:47:55.718Z,26.50
2018-08-22T18:50:24.425Z,26.50
2018-08-22T18:52:55.114Z,26.40
2018-08-22T18:55:32.345Z,26.20
2018-08-22T18:58:02.390Z,26.10
2018-08-22T19:00:34.051Z,26.00
2018-08-22T19:03:02.678Z,26.00
2018-08-22T19:05:33.106Z,26.00
2018-08-22T19:08:06.767Z,26.00
2018-08-22T19:10:37.596Z,26.10
2018-08-22T19:13:21.541Z,26.00
2018-08-22T19:15:56.781Z,26.00
2018-08-22T19:18:25.309Z,25.90
2018-08-22T19:20:56.019Z,25.90
2018-08-22T19:23:24.670Z,25.80
2018-08-22T19:25:53.972Z,25.70
2018-08-22T19:28:23.135Z,25.60
2018-08-22T19:30:51.987Z,25.60
2018-08-22T19:33:22.487Z,25.60
2018-08-22T19:35:51.058Z,25.50
2018-08-22T19:38:21.781Z,25.50
2018-08-22T19:40:50.330Z,25.40
2018-08-22T19:43:18.747Z,25.40
2018-08-22T19:45:47.312Z,25.30
2018-08-22T19:48:15.930Z,25.20
2018-08-22T19:50:44.457Z,25.20
2018-08-22T19:53:12.883Z,25.20
2018-08-22T19:55:41.354Z,25.10
2018-08-22T19:58:10.347Z,25.00
2018-08-22T20:00:38.804Z,24.90
2018-08-22T20:03:07.364Z,24.80
2018-08-22T20:05:54.535Z,24.80
2018-08-22T20:08:29.183Z,24.70
2018-08-22T20:10:58.360Z,24.50
2018-08-22T20:13:36.801Z,24.40
2018-08-22T20:16:06.339Z,24.40
2018-08-22T20:18:34.824Z,24.40
2018-08-22T20:21:03.265Z,24.30
2018-08-22T20:23:31.805Z,24.30
2018-08-22T20:26:00.330Z,24.20
2018-08-22T20:28:28.888Z,23.90
2018-08-22T20:31:02.466Z,23.80
2018-08-22T20:33:31.670Z,23.90
2018-08-22T20:36:00.117Z,24.00
2018-08-22T20:38:28.605Z,24.00
2018-08-22T20:41:01.466Z,24.00
2018-08-22T20:43:30.571Z,24.00
2018-08-22T20:45:58.997Z,24.00
2018-08-22T20:48:27.569Z,23.90
2018-08-22T20:50:57.464Z,23.80
2018-08-22T20:53:25.890Z,23.80
2018-08-22T20:55:54.492Z,23.80
2018-08-22T20:58:30.159Z,23.80
2018-08-22T21:00:59.421Z,23.70
2018-08-22T21:03:27.832Z,23.70
2018-08-22T21:05:57.078Z,23.50
2018-08-22T21:08:25.687Z,23.20
2018-08-22T21:10:54.256Z,23.10
2018-08-22T21:13:30.168Z,23.10
2018-08-22T21:15:59.182Z,23.10
2018-08-22T21:18:28.056Z,23.20
2018-08-22T21:20:57.565Z,23.20
2018-08-22T21:23:26.045Z,23.20
2018-08-22T21:25:54.590Z,23.00
2018-08-22T21:28:25.367Z,22.90
2018-08-22T21:30:57.892Z,22.90
2018-08-22T21:33:26.909Z,22.90
2018-08-22T21:35:55.394Z,23.00
2018-08-22T21:38:23.925Z,23.10
2018-08-22T21:40:52.466Z,23.00
2018-08-22T21:43:21.361Z,23.00
2018-08-22T21:45:51.016Z,22.90
2018-08-22T21:48:23.227Z,22.90
2018-08-22T21:50:51.943Z,22.90
2018-08-22T21:53:20.482Z,23.00
2018-08-22T21:55:49.445Z,22.90
2018-08-22T21:58:17.849Z,22.80
2018-08-22T22:00:46.328Z,22.60
2018-08-22T22:03:19.018Z,22.50
2018-08-22T22:05:54.610Z,22.50
2018-08-22T22:08:23.349Z,22.50
2018-08-22T22:11:03.624Z,22.50
2018-08-22T22:13:32.431Z,22.40
2018-08-22T22:16:02.524Z,22.40
2018-08-22T22:18:33.041Z,22.40
2018-08-22T22:21:10.978Z,22.40
2018-08-22T22:23:46.451Z,22.40
2018-08-22T22:26:16.866Z,22.30
2018-08-22T22:28:45.998Z,22.30
2018-08-22T22:31:15.661Z,22.30
2018-08-22T22:33:51.485Z,22.30
2018-08-22T22:36:19.947Z,22.30
2018-08-22T22:38:48.495Z,22.40
2018-08-22T22:41:17.293Z,22.30
2018-08-22T22:43:45.773Z,22.30
2018-08-22T22:46:14.521Z,22.20
2018-08-22T22:48:44.153Z,22.20
2018-08-22T22:51:13.477Z,22.30
2018-08-22T22:53:42.001Z,22.30
2018-08-22T22:56:10.405Z,22.30
2018-08-22T22:58:39.005Z,22.30
2018-08-22T23:01:07.765Z,22.20
2018-08-22T23:03:37.216Z,22.10
2018-08-22T23:06:06.106Z,22.00
2018-08-22T23:08:35.095Z,22.00
2018-08-22T23:11:04.101Z,21.90
2018-08-22T23:13:33.933Z,21.80
2018-08-22T23:16:03.226Z,21.80
2018-08-22T23:18:32.094Z,21.80
2018-08-22T23:21:00.946Z,21.80
2018-08-22T23:23:36.753Z,21.80
2018-08-22T23:26:11.765Z,21.80
2018-08-22T23:28:41.116Z,21.80
2018-08-22T23:31:09.923Z,21.80
2018-08-22T23:33:39.940Z,21.80
2018-08-22T23:36:08.705Z,21.80
2018-08-22T23:38:39.201Z,21.90
2018-08-22T23:41:07.891Z,21.90
2018-08-22T23:43:41.570Z,21.90
2018-08-22T23:46:11.068Z,22.00
2018-08-22T23:48:39.993Z,22.00
2018-08-22T23:51:12.078Z,21.90
2018-08-22T23:53:44.834Z,21.90
2018-08-22T23:56:16.567Z,21.90
2018-08-22T23:58:46.107Z,21.90
